Disclaimer

Please do not use the information listed here in-flight or in-navigation, as they are not provided to us by the airports but are provided by volunteers, so they might be outdated.

Search


Regions


Airport information page

Radio informations:
BODO CON - 126.45 MHz

Airport informations:
Latitude: 68° 29' 28.68" N
Longitude: 016° 40' 41.19" E
Elevation: 84 feet - 26 meters
Operating hours: Remarks
Operating agency: Civil government, landing fees and diplomatic clearance may be required
Timezone: UTC+1(+2DT) - Last Sunday in March to last Sunday in October
Fuel: JP-8, SemiKeroscene MIL Spec T-83133, without icing inhibitor

100/130 MIL Spec, low lead, aviation gasoline (BLUE)

Runway information:
17/35 - 9236 x 148 feet< - >2815 x 45 meters

Recent METARs:
ENEV 181850Z VRB03KT CAVOK M00/M01 Q1040 RMK WIND 1400FT 21011KT
ENEV 181850Z VRB03KT CAVOK M00/M01 Q1040 RMK WIND 1400FT 21011KT
ENEV 181950Z VRB03KT CAVOK 01/M00 Q1040 RMK WIND 1400FT 22014KT

Airport on the map: